sensor_id;sensor_type;location;lat;lon;timestamp;P1;durP1;ratioP1;P2;durP2;ratioP2
65996;SDS011;52765;52.258;21.052;2023-04-24T00:00:31;9.23;;;5.90;;
65996;SDS011;52765;52.258;21.052;2023-04-24T00:02:57;15.00;;;6.85;;
65996;SDS011;52765;52.258;21.052;2023-04-24T00:05:23;11.65;;;6.47;;
65996;SDS011;52765;52.258;21.052;2023-04-24T00:07:49;10.63;;;6.53;;
65996;SDS011;52765;52.258;21.052;2023-04-24T00:10:18;13.88;;;6.47;;
65996;SDS011;52765;52.258;21.052;2023-04-24T00:12:44;13.88;;;7.00;;
65996;SDS011;52765;52.258;21.052;2023-04-24T00:15:09;13.40;;;7.22;;
65996;SDS011;52765;52.258;21.052;2023-04-24T00:17:35;15.02;;;7.07;;
65996;SDS011;52765;52.258;21.052;2023-04-24T00:20:01;13.23;;;6.32;;
65996;SDS011;52765;52.258;21.052;2023-04-24T00:22:29;12.10;;;6.55;;
65996;SDS011;52765;52.258;21.052;2023-04-24T00:24:56;14.18;;;6.68;;
65996;SDS011;52765;52.258;21.052;2023-04-24T00:27:21;12.25;;;6.82;;
65996;SDS011;52765;52.258;21.052;2023-04-24T00:29:47;14.40;;;6.97;;
65996;SDS011;52765;52.258;21.052;2023-04-24T00:32:13;11.63;;;7.30;;
65996;SDS011;52765;52.258;21.052;2023-04-24T00:34:39;10.38;;;6.80;;
65996;SDS011;52765;52.258;21.052;2023-04-24T00:37:05;11.65;;;7.43;;
65996;SDS011;52765;52.258;21.052;2023-04-24T00:39:31;12.50;;;6.95;;
65996;SDS011;52765;52.258;21.052;2023-04-24T00:41:56;12.82;;;6.68;;
65996;SDS011;52765;52.258;21.052;2023-04-24T00:44:22;12.20;;;6.65;;
65996;SDS011;52765;52.258;21.052;2023-04-24T00:46:48;14.30;;;6.80;;
65996;SDS011;52765;52.258;21.052;2023-04-24T00:49:22;12.15;;;7.25;;
65996;SDS011;52765;52.258;21.052;2023-04-24T00:51:48;10.73;;;7.03;;
65996;SDS011;52765;52.258;21.052;2023-04-24T00:54:14;11.88;;;6.95;;
65996;SDS011;52765;52.258;21.052;2023-04-24T00:56:41;15.85;;;7.65;;
65996;SDS011;52765;52.258;21.052;2023-04-24T00:59:08;18.80;;;8.32;;
65996;SDS011;52765;52.258;21.052;2023-04-24T01:01:34;49.45;;;11.48;;
65996;SDS011;52765;52.258;21.052;2023-04-24T01:04:00;29.83;;;9.05;;
65996;SDS011;52765;52.258;21.052;2023-04-24T01:06:27;20.65;;;8.05;;
65996;SDS011;52765;52.258;21.052;2023-04-24T01:08:54;180.55;;;25.88;;
65996;SDS011;52765;52.258;21.052;2023-04-24T01:11:20;68.40;;;13.40;;
65996;SDS011;52765;52.258;21.052;2023-04-24T01:13:47;23.50;;;9.50;;
65996;SDS011;52765;52.258;21.052;2023-04-24T01:16:13;16.33;;;7.72;;
65996;SDS011;52765;52.258;21.052;2023-04-24T01:18:42;25.25;;;8.45;;
65996;SDS011;52765;52.258;21.052;2023-04-24T01:21:08;16.33;;;7.05;;
65996;SDS011;52765;52.258;21.052;2023-04-24T01:23:38;12.77;;;7.25;;
65996;SDS011;52765;52.258;21.052;2023-04-24T01:26:03;14.82;;;7.65;;
65996;SDS011;52765;52.258;21.052;2023-04-24T01:28:29;13.25;;;7.45;;
65996;SDS011;52765;52.258;21.052;2023-04-24T01:30:55;16.27;;;7.25;;
65996;SDS011;52765;52.258;21.052;2023-04-24T01:33:21;16.35;;;7.50;;
65996;SDS011;52765;52.258;21.052;2023-04-24T01:35:47;10.52;;;6.25;;
65996;SDS011;52765;52.258;21.052;2023-04-24T01:38:13;13.70;;;7.03;;
65996;SDS011;52765;52.258;21.052;2023-04-24T01:40:39;13.80;;;7.47;;
65996;SDS011;52765;52.258;21.052;2023-04-24T01:43:05;13.63;;;7.40;;
65996;SDS011;52765;52.258;21.052;2023-04-24T01:45:31;17.23;;;7.55;;
65996;SDS011;52765;52.258;21.052;2023-04-24T01:47:56;16.38;;;7.45;;
65996;SDS011;52765;52.258;21.052;2023-04-24T01:50:25;15.98;;;7.55;;
65996;SDS011;52765;52.258;21.052;2023-04-24T01:52:50;13.40;;;8.05;;
65996;SDS011;52765;52.258;21.052;2023-04-24T01:55:16;31.90;;;8.00;;
65996;SDS011;52765;52.258;21.052;2023-04-24T01:57:42;20.83;;;7.60;;
65996;SDS011;52765;52.258;21.052;2023-04-24T02:00:07;14.45;;;8.02;;
65996;SDS011;52765;52.258;21.052;2023-04-24T02:02:33;13.70;;;8.15;;
65996;SDS011;52765;52.258;21.052;2023-04-24T02:04:59;22.08;;;8.63;;
65996;SDS011;52765;52.258;21.052;2023-04-24T02:07:25;29.50;;;8.35;;
65996;SDS011;52765;52.258;21.052;2023-04-24T02:09:51;21.85;;;8.23;;
65996;SDS011;52765;52.258;21.052;2023-04-24T02:12:16;14.38;;;8.13;;
65996;SDS011;52765;52.258;21.052;2023-04-24T02:14:44;14.43;;;8.05;;
65996;SDS011;52765;52.258;21.052;2023-04-24T02:17:10;14.63;;;8.10;;
65996;SDS011;52765;52.258;21.052;2023-04-24T02:19:38;17.58;;;8.18;;
65996;SDS011;52765;52.258;21.052;2023-04-24T02:22:04;16.17;;;8.00;;
65996;SDS011;52765;52.258;21.052;2023-04-24T02:24:29;16.77;;;8.35;;
65996;SDS011;52765;52.258;21.052;2023-04-24T02:26:55;14.23;;;8.00;;
65996;SDS011;52765;52.258;21.052;2023-04-24T02:29:20;21.17;;;8.32;;
65996;SDS011;52765;52.258;21.052;2023-04-24T02:31:46;14.95;;;8.07;;
65996;SDS011;52765;52.258;21.052;2023-04-24T02:34:11;15.93;;;8.45;;
65996;SDS011;52765;52.258;21.052;2023-04-24T02:36:37;13.18;;;8.20;;
65996;SDS011;52765;52.258;21.052;2023-04-24T02:39:02;15.10;;;8.15;;
65996;SDS011;52765;52.258;21.052;2023-04-24T02:41:28;17.00;;;8.02;;
65996;SDS011;52765;52.258;21.052;2023-04-24T02:43:57;17.42;;;8.43;;
65996;SDS011;52765;52.258;21.052;2023-04-24T02:46:23;13.05;;;7.63;;
65996;SDS011;52765;52.258;21.052;2023-04-24T02:48:48;10.75;;;7.45;;
65996;SDS011;52765;52.258;21.052;2023-04-24T02:51:13;14.70;;;8.20;;
65996;SDS011;52765;52.258;21.052;2023-04-24T02:53:39;12.70;;;7.50;;
65996;SDS011;52765;52.258;21.052;2023-04-24T02:56:05;15.18;;;7.93;;
65996;SDS011;52765;52.258;21.052;2023-04-24T02:58:30;11.68;;;7.88;;
65996;SDS011;52765;52.258;21.052;2023-04-24T03:00:56;15.60;;;7.80;;
65996;SDS011;52765;52.258;21.052;2023-04-24T03:03:21;17.38;;;8.40;;
65996;SDS011;52765;52.258;21.052;2023-04-24T03:05:49;21.20;;;8.75;;
65996;SDS011;52765;52.258;21.052;2023-04-24T03:08:15;20.00;;;8.68;;
65996;SDS011;52765;52.258;21.052;2023-04-24T03:10:40;19.67;;;8.70;;
65996;SDS011;52765;52.258;21.052;2023-04-24T03:13:06;17.27;;;8.30;;
65996;SDS011;52765;52.258;21.052;2023-04-24T03:15:33;15.30;;;8.30;;
65996;SDS011;52765;52.258;21.052;2023-04-24T03:17:58;13.77;;;8.18;;
65996;SDS011;52765;52.258;21.052;2023-04-24T03:20:25;19.90;;;8.52;;
65996;SDS011;52765;52.258;21.052;2023-04-24T03:22:51;18.30;;;8.77;;
65996;SDS011;52765;52.258;21.052;2023-04-24T03:25:16;22.83;;;9.13;;
65996;SDS011;52765;52.258;21.052;2023-04-24T03:27:42;16.20;;;8.70;;
65996;SDS011;52765;52.258;21.052;2023-04-24T03:30:07;19.95;;;8.75;;
65996;SDS011;52765;52.258;21.052;2023-04-24T03:32:34;15.25;;;8.35;;
65996;SDS011;52765;52.258;21.052;2023-04-24T03:35:00;16.65;;;8.40;;
65996;SDS011;52765;52.258;21.052;2023-04-24T03:37:26;36.78;;;10.82;;
65996;SDS011;52765;52.258;21.052;2023-04-24T03:39:51;27.13;;;9.65;;
65996;SDS011;52765;52.258;21.052;2023-04-24T03:42:17;20.50;;;9.20;;
65996;SDS011;52765;52.258;21.052;2023-04-24T03:44:43;16.02;;;8.48;;
65996;SDS011;52765;52.258;21.052;2023-04-24T03:47:08;14.02;;;8.20;;
65996;SDS011;52765;52.258;21.052;2023-04-24T03:49:34;18.83;;;8.75;;
65996;SDS011;52765;52.258;21.052;2023-04-24T03:51:59;15.52;;;7.75;;
65996;SDS011;52765;52.258;21.052;2023-04-24T03:54:25;30.70;;;10.27;;
65996;SDS011;52765;52.258;21.052;2023-04-24T03:56:51;22.90;;;8.52;;
65996;SDS011;52765;52.258;21.052;2023-04-24T03:59:16;15.63;;;9.73;;
65996;SDS011;52765;52.258;21.052;2023-04-24T04:01:41;30.25;;;11.15;;
65996;SDS011;52765;52.258;21.052;2023-04-24T04:04:07;17.33;;;8.90;;
65996;SDS011;52765;52.258;21.052;2023-04-24T04:06:33;22.50;;;9.15;;
65996;SDS011;52765;52.258;21.052;2023-04-24T04:08:59;20.17;;;9.32;;
65996;SDS011;52765;52.258;21.052;2023-04-24T04:11:25;20.27;;;9.50;;
65996;SDS011;52765;52.258;21.052;2023-04-24T04:13:51;23.45;;;8.82;;
65996;SDS011;52765;52.258;21.052;2023-04-24T04:16:17;23.65;;;9.30;;
65996;SDS011;52765;52.258;21.052;2023-04-24T04:18:43;18.88;;;8.88;;
65996;SDS011;52765;52.258;21.052;2023-04-24T04:21:08;16.45;;;8.77;;
65996;SDS011;52765;52.258;21.052;2023-04-24T04:23:34;24.83;;;9.93;;
65996;SDS011;52765;52.258;21.052;2023-04-24T04:26:00;22.35;;;9.40;;
65996;SDS011;52765;52.258;21.052;2023-04-24T04:28:26;17.70;;;9.05;;
65996;SDS011;52765;52.258;21.052;2023-04-24T04:30:51;22.42;;;9.15;;
65996;SDS011;52765;52.258;21.052;2023-04-24T04:33:20;17.60;;;8.88;;
65996;SDS011;52765;52.258;21.052;2023-04-24T04:35:46;25.92;;;9.02;;
65996;SDS011;52765;52.258;21.052;2023-04-24T04:38:14;19.77;;;9.77;;
65996;SDS011;52765;52.258;21.052;2023-04-24T04:40:40;22.70;;;8.77;;
65996;SDS011;52765;52.258;21.052;2023-04-24T04:43:06;17.80;;;8.77;;
65996;SDS011;52765;52.258;21.052;2023-04-24T04:45:31;29.77;;;10.65;;
65996;SDS011;52765;52.258;21.052;2023-04-24T04:47:58;17.50;;;8.52;;
65996;SDS011;52765;52.258;21.052;2023-04-24T04:50:25;25.25;;;9.38;;
65996;SDS011;52765;52.258;21.052;2023-04-24T04:52:51;23.35;;;9.13;;
65996;SDS011;52765;52.258;21.052;2023-04-24T04:55:17;19.90;;;9.25;;
65996;SDS011;52765;52.258;21.052;2023-04-24T04:57:45;13.48;;;8.40;;
65996;SDS011;52765;52.258;21.052;2023-04-24T05:00:11;18.17;;;8.75;;
65996;SDS011;52765;52.258;21.052;2023-04-24T05:02:37;18.70;;;8.95;;
65996;SDS011;52765;52.258;21.052;2023-04-24T05:05:04;20.90;;;9.05;;
65996;SDS011;52765;52.258;21.052;2023-04-24T05:07:30;17.90;;;9.07;;
65996;SDS011;52765;52.258;21.052;2023-04-24T05:09:56;23.45;;;9.10;;
65996;SDS011;52765;52.258;21.052;2023-04-24T05:12:21;17.45;;;9.40;;
65996;SDS011;52765;52.258;21.052;2023-04-24T05:14:46;18.92;;;8.95;;
65996;SDS011;52765;52.258;21.052;2023-04-24T05:17:12;19.58;;;9.23;;
65996;SDS011;52765;52.258;21.052;2023-04-24T05:19:37;18.90;;;8.35;;
65996;SDS011;52765;52.258;21.052;2023-04-24T05:22:03;14.57;;;8.27;;
65996;SDS011;52765;52.258;21.052;2023-04-24T05:24:31;24.20;;;9.68;;
65996;SDS011;52765;52.258;21.052;2023-04-24T05:26:58;24.65;;;9.30;;
65996;SDS011;52765;52.258;21.052;2023-04-24T05:29:24;20.67;;;8.55;;
65996;SDS011;52765;52.258;21.052;2023-04-24T05:31:54;24.98;;;9.50;;
65996;SDS011;52765;52.258;21.052;2023-04-24T05:34:19;15.57;;;8.70;;
65996;SDS011;52765;52.258;21.052;2023-04-24T05:36:45;22.10;;;9.43;;
65996;SDS011;52765;52.258;21.052;2023-04-24T05:39:11;14.45;;;8.50;;
65996;SDS011;52765;52.258;21.052;2023-04-24T05:41:36;28.05;;;9.15;;
65996;SDS011;52765;52.258;21.052;2023-04-24T05:44:02;19.30;;;8.60;;
65996;SDS011;52765;52.258;21.052;2023-04-24T05:46:27;19.02;;;8.55;;
65996;SDS011;52765;52.258;21.052;2023-04-24T05:48:52;16.70;;;9.30;;
65996;SDS011;52765;52.258;21.052;2023-04-24T05:51:18;14.32;;;8.27;;
65996;SDS011;52765;52.258;21.052;2023-04-24T05:53:43;19.98;;;9.52;;
65996;SDS011;52765;52.258;21.052;2023-04-24T05:56:09;15.38;;;8.48;;
65996;SDS011;52765;52.258;21.052;2023-04-24T05:58:34;20.85;;;9.00;;
65996;SDS011;52765;52.258;21.052;2023-04-24T06:01:00;13.88;;;8.30;;
65996;SDS011;52765;52.258;21.052;2023-04-24T06:03:26;16.85;;;8.60;;
65996;SDS011;52765;52.258;21.052;2023-04-24T06:05:52;18.92;;;8.48;;
65996;SDS011;52765;52.258;21.052;2023-04-24T06:08:18;20.83;;;9.65;;
65996;SDS011;52765;52.258;21.052;2023-04-24T06:10:44;18.15;;;8.23;;
65996;SDS011;52765;52.258;21.052;2023-04-24T06:13:10;19.67;;;7.70;;
65996;SDS011;52765;52.258;21.052;2023-04-24T06:15:36;22.40;;;9.73;;
65996;SDS011;52765;52.258;21.052;2023-04-24T06:18:02;21.65;;;9.10;;
65996;SDS011;52765;52.258;21.052;2023-04-24T06:20:28;21.85;;;8.32;;
65996;SDS011;52765;52.258;21.052;2023-04-24T06:22:53;18.30;;;8.55;;
65996;SDS011;52765;52.258;21.052;2023-04-24T06:25:19;11.82;;;7.32;;
65996;SDS011;52765;52.258;21.052;2023-04-24T06:27:45;18.02;;;7.90;;
65996;SDS011;52765;52.258;21.052;2023-04-24T06:30:11;16.23;;;8.57;;
65996;SDS011;52765;52.258;21.052;2023-04-24T06:32:36;18.15;;;8.50;;
65996;SDS011;52765;52.258;21.052;2023-04-24T06:35:02;15.52;;;7.97;;
65996;SDS011;52765;52.258;21.052;2023-04-24T06:37:28;25.95;;;9.38;;
65996;SDS011;52765;52.258;21.052;2023-04-24T06:39:54;37.35;;;9.20;;
65996;SDS011;52765;52.258;21.052;2023-04-24T06:42:19;19.00;;;9.13;;
65996;SDS011;52765;52.258;21.052;2023-04-24T06:44:46;10.77;;;7.15;;
65996;SDS011;52765;52.258;21.052;2023-04-24T06:47:12;17.40;;;9.07;;
65996;SDS011;52765;52.258;21.052;2023-04-24T06:49:41;22.70;;;8.52;;
65996;SDS011;52765;52.258;21.052;2023-04-24T06:52:07;19.05;;;7.80;;
65996;SDS011;52765;52.258;21.052;2023-04-24T06:54:33;13.82;;;8.18;;
65996;SDS011;52765;52.258;21.052;2023-04-24T06:57:00;18.58;;;8.90;;
65996;SDS011;52765;52.258;21.052;2023-04-24T06:59:26;16.10;;;8.48;;
65996;SDS011;52765;52.258;21.052;2023-04-24T07:01:52;15.73;;;7.88;;
65996;SDS011;52765;52.258;21.052;2023-04-24T07:04:18;16.75;;;8.43;;
65996;SDS011;52765;52.258;21.052;2023-04-24T07:06:44;18.55;;;8.30;;
65996;SDS011;52765;52.258;21.052;2023-04-24T07:09:11;18.90;;;9.38;;
65996;SDS011;52765;52.258;21.052;2023-04-24T07:11:38;17.20;;;8.25;;
65996;SDS011;52765;52.258;21.052;2023-04-24T07:14:05;19.50;;;7.85;;
65996;SDS011;52765;52.258;21.052;2023-04-24T07:16:31;14.85;;;7.80;;
65996;SDS011;52765;52.258;21.052;2023-04-24T07:18:56;10.20;;;6.57;;
65996;SDS011;52765;52.258;21.052;2023-04-24T07:21:22;11.68;;;7.10;;
65996;SDS011;52765;52.258;21.052;2023-04-24T07:23:47;12.55;;;6.72;;
65996;SDS011;52765;52.258;21.052;2023-04-24T07:26:13;9.90;;;6.63;;
65996;SDS011;52765;52.258;21.052;2023-04-24T07:28:39;14.27;;;6.50;;
65996;SDS011;52765;52.258;21.052;2023-04-24T07:31:05;10.48;;;6.88;;
65996;SDS011;52765;52.258;21.052;2023-04-24T07:33:31;13.98;;;6.75;;
65996;SDS011;52765;52.258;21.052;2023-04-24T07:35:57;12.20;;;7.15;;
65996;SDS011;52765;52.258;21.052;2023-04-24T07:38:22;11.45;;;6.07;;
65996;SDS011;52765;52.258;21.052;2023-04-24T07:40:48;22.33;;;8.45;;
65996;SDS011;52765;52.258;21.052;2023-04-24T07:43:14;16.20;;;7.68;;
65996;SDS011;52765;52.258;21.052;2023-04-24T07:45:39;15.60;;;7.80;;
65996;SDS011;52765;52.258;21.052;2023-04-24T07:48:05;13.10;;;7.65;;
65996;SDS011;52765;52.258;21.052;2023-04-24T07:50:31;11.48;;;7.13;;
65996;SDS011;52765;52.258;21.052;2023-04-24T07:52:57;19.08;;;8.52;;
65996;SDS011;52765;52.258;21.052;2023-04-24T07:55:22;17.08;;;8.00;;
65996;SDS011;52765;52.258;21.052;2023-04-24T07:57:48;14.10;;;7.80;;
65996;SDS011;52765;52.258;21.052;2023-04-24T08:00:14;13.45;;;7.45;;
65996;SDS011;52765;52.258;21.052;2023-04-24T08:02:39;16.42;;;7.47;;
65996;SDS011;52765;52.258;21.052;2023-04-24T08:05:06;9.32;;;6.28;;
65996;SDS011;52765;52.258;21.052;2023-04-24T08:07:31;14.07;;;7.20;;
65996;SDS011;52765;52.258;21.052;2023-04-24T08:09:58;28.15;;;8.77;;
65996;SDS011;52765;52.258;21.052;2023-04-24T08:12:24;21.83;;;8.10;;
65996;SDS011;52765;52.258;21.052;2023-04-24T08:14:50;12.23;;;6.90;;
65996;SDS011;52765;52.258;21.052;2023-04-24T08:17:16;11.35;;;6.30;;
65996;SDS011;52765;52.258;21.052;2023-04-24T08:19:42;29.45;;;7.60;;
65996;SDS011;52765;52.258;21.052;2023-04-24T08:22:12;18.58;;;6.80;;
65996;SDS011;52765;52.258;21.052;2023-04-24T08:24:38;14.20;;;7.28;;
65996;SDS011;52765;52.258;21.052;2023-04-24T08:27:03;17.20;;;6.82;;
65996;SDS011;52765;52.258;21.052;2023-04-24T08:29:29;22.17;;;6.88;;
65996;SDS011;52765;52.258;21.052;2023-04-24T08:31:54;14.27;;;6.90;;
65996;SDS011;52765;52.258;21.052;2023-04-24T08:34:20;17.77;;;6.95;;
65996;SDS011;52765;52.258;21.052;2023-04-24T08:36:46;13.43;;;6.85;;
65996;SDS011;52765;52.258;21.052;2023-04-24T08:39:12;16.55;;;6.85;;
65996;SDS011;52765;52.258;21.052;2023-04-24T08:41:37;12.25;;;6.88;;
65996;SDS011;52765;52.258;21.052;2023-04-24T08:44:03;18.60;;;9.88;;
65996;SDS011;52765;52.258;21.052;2023-04-24T08:46:29;15.07;;;6.68;;
65996;SDS011;52765;52.258;21.052;2023-04-24T08:48:58;12.40;;;6.60;;
65996;SDS011;52765;52.258;21.052;2023-04-24T08:51:24;13.20;;;6.65;;
65996;SDS011;52765;52.258;21.052;2023-04-24T08:53:51;8.48;;;5.88;;
65996;SDS011;52765;52.258;21.052;2023-04-24T08:56:18;15.90;;;8.73;;
65996;SDS011;52765;52.258;21.052;2023-04-24T08:58:45;17.73;;;7.25;;
65996;SDS011;52765;52.258;21.052;2023-04-24T09:01:11;14.10;;;6.93;;
65996;SDS011;52765;52.258;21.052;2023-04-24T09:03:37;9.70;;;6.10;;
65996;SDS011;52765;52.258;21.052;2023-04-24T09:06:03;8.50;;;5.93;;
65996;SDS011;52765;52.258;21.052;2023-04-24T09:08:32;9.68;;;6.03;;
65996;SDS011;52765;52.258;21.052;2023-04-24T09:10:58;12.48;;;6.50;;
65996;SDS011;52765;52.258;21.052;2023-04-24T09:13:26;12.40;;;5.70;;
65996;SDS011;52765;52.258;21.052;2023-04-24T09:15:52;11.68;;;5.90;;
65996;SDS011;52765;52.258;21.052;2023-04-24T09:18:19;8.60;;;5.95;;
65996;SDS011;52765;52.258;21.052;2023-04-24T09:21:07;12.07;;;5.82;;
65996;SDS011;52765;52.258;21.052;2023-04-24T09:23:34;9.88;;;6.00;;
65996;SDS011;52765;52.258;21.052;2023-04-24T09:26:00;13.38;;;6.30;;
65996;SDS011;52765;52.258;21.052;2023-04-24T09:28:32;9.55;;;6.38;;
65996;SDS011;52765;52.258;21.052;2023-04-24T09:31:12;9.38;;;5.45;;
65996;SDS011;52765;52.258;21.052;2023-04-24T09:33:40;10.35;;;5.97;;
65996;SDS011;52765;52.258;21.052;2023-04-24T09:36:19;11.75;;;5.60;;
65996;SDS011;52765;52.258;21.052;2023-04-24T09:38:58;8.52;;;5.57;;
65996;SDS011;52765;52.258;21.052;2023-04-24T09:41:27;11.10;;;5.82;;
65996;SDS011;52765;52.258;21.052;2023-04-24T09:43:56;12.40;;;5.93;;
65996;SDS011;52765;52.258;21.052;2023-04-24T09:46:28;9.07;;;5.45;;
65996;SDS011;52765;52.258;21.052;2023-04-24T09:48:55;8.50;;;4.78;;
65996;SDS011;52765;52.258;21.052;2023-04-24T09:51:32;11.00;;;4.63;;
65996;SDS011;52765;52.258;21.052;2023-04-24T09:54:00;10.45;;;4.85;;
65996;SDS011;52765;52.258;21.052;2023-04-24T09:56:26;7.63;;;4.18;;
65996;SDS011;52765;52.258;21.052;2023-04-24T09:58:51;14.93;;;5.20;;
65996;SDS011;52765;52.258;21.052;2023-04-24T10:01:28;5.88;;;3.97;;
65996;SDS011;52765;52.258;21.052;2023-04-24T10:03:55;7.43;;;4.90;;
65996;SDS011;52765;52.258;21.052;2023-04-24T10:06:21;11.95;;;4.63;;
65996;SDS011;52765;52.258;21.052;2023-04-24T10:08:47;10.15;;;4.10;;
65996;SDS011;52765;52.258;21.052;2023-04-24T10:11:13;5.35;;;4.00;;
65996;SDS011;52765;52.258;21.052;2023-04-24T10:13:39;10.70;;;4.53;;
65996;SDS011;52765;52.258;21.052;2023-04-24T10:16:05;7.47;;;4.60;;
65996;SDS011;52765;52.258;21.052;2023-04-24T10:18:32;4.72;;;3.70;;
65996;SDS011;52765;52.258;21.052;2023-04-24T10:20:59;11.10;;;5.47;;
65996;SDS011;52765;52.258;21.052;2023-04-24T10:23:26;7.78;;;4.63;;
65996;SDS011;52765;52.258;21.052;2023-04-24T10:25:52;7.18;;;4.35;;
65996;SDS011;52765;52.258;21.052;2023-04-24T10:28:18;7.43;;;4.80;;
65996;SDS011;52765;52.258;21.052;2023-04-24T10:30:44;5.53;;;4.28;;
65996;SDS011;52765;52.258;21.052;2023-04-24T10:33:10;10.20;;;5.25;;
65996;SDS011;52765;52.258;21.052;2023-04-24T10:35:39;9.20;;;5.13;;
65996;SDS011;52765;52.258;21.052;2023-04-24T10:38:14;7.43;;;4.75;;
65996;SDS011;52765;52.258;21.052;2023-04-24T10:40:45;8.77;;;4.70;;
65996;SDS011;52765;52.258;21.052;2023-04-24T10:43:10;8.15;;;4.45;;
65996;SDS011;52765;52.258;21.052;2023-04-24T10:45:41;12.90;;;5.97;;
65996;SDS011;52765;52.258;21.052;2023-04-24T10:48:26;12.65;;;5.95;;
65996;SDS011;52765;52.258;21.052;2023-04-24T10:50:52;18.17;;;6.47;;
65996;SDS011;52765;52.258;21.052;2023-04-24T10:53:23;18.92;;;6.55;;
65996;SDS011;52765;52.258;21.052;2023-04-24T10:56:15;8.63;;;5.65;;
65996;SDS011;52765;52.258;21.052;2023-04-24T11:03:59;8.00;;;5.88;;
65996;SDS011;52765;52.258;21.052;2023-04-24T11:09:02;10.93;;;5.63;;
65996;SDS011;52765;52.258;21.052;2023-04-24T11:11:33;18.90;;;5.78;;
65996;SDS011;52765;52.258;21.052;2023-04-24T11:14:01;8.98;;;5.57;;
65996;SDS011;52765;52.258;21.052;2023-04-24T11:16:32;18.13;;;5.90;;
65996;SDS011;52765;52.258;21.052;2023-04-24T11:24:40;13.82;;;5.35;;
65996;SDS011;52765;52.258;21.052;2023-04-24T11:27:18;14.93;;;5.63;;
65996;SDS011;52765;52.258;21.052;2023-04-24T11:29:49;14.13;;;5.13;;
65996;SDS011;52765;52.258;21.052;2023-04-24T11:32:37;12.38;;;5.10;;
65996;SDS011;52765;52.258;21.052;2023-04-24T11:35:07;11.95;;;5.45;;
65996;SDS011;52765;52.258;21.052;2023-04-24T11:37:40;8.45;;;5.20;;
65996;SDS011;52765;52.258;21.052;2023-04-24T11:40:09;14.27;;;5.55;;
65996;SDS011;52765;52.258;21.052;2023-04-24T11:42:37;14.30;;;5.22;;
65996;SDS011;52765;52.258;21.052;2023-04-24T11:45:10;10.95;;;5.30;;
65996;SDS011;52765;52.258;21.052;2023-04-24T11:50:04;10.95;;;4.97;;
65996;SDS011;52765;52.258;21.052;2023-04-24T11:52:31;15.40;;;5.47;;
65996;SDS011;52765;52.258;21.052;2023-04-24T11:54:57;16.63;;;5.43;;
65996;SDS011;52765;52.258;21.052;2023-04-24T11:57:23;23.45;;;5.50;;
65996;SDS011;52765;52.258;21.052;2023-04-24T11:59:52;8.60;;;5.18;;
65996;SDS011;52765;52.258;21.052;2023-04-24T12:02:20;13.07;;;4.72;;
65996;SDS011;52765;52.258;21.052;2023-04-24T12:04:50;9.50;;;4.43;;
65996;SDS011;52765;52.258;21.052;2023-04-24T12:07:16;22.65;;;6.70;;
65996;SDS011;52765;52.258;21.052;2023-04-24T12:09:42;11.38;;;4.75;;
65996;SDS011;52765;52.258;21.052;2023-04-24T12:12:29;10.25;;;5.25;;
65996;SDS011;52765;52.258;21.052;2023-04-24T12:14:58;20.08;;;5.32;;
65996;SDS011;52765;52.258;21.052;2023-04-24T12:17:28;7.38;;;4.80;;
65996;SDS011;52765;52.258;21.052;2023-04-24T12:19:59;9.55;;;4.70;;
65996;SDS011;52765;52.258;21.052;2023-04-24T12:22:36;17.80;;;5.43;;
65996;SDS011;52765;52.258;21.052;2023-04-24T12:27:36;11.82;;;5.25;;
65996;SDS011;52765;52.258;21.052;2023-04-24T12:30:05;9.85;;;4.38;;
65996;SDS011;52765;52.258;21.052;2023-04-24T12:32:45;10.13;;;4.90;;
65996;SDS011;52765;52.258;21.052;2023-04-24T12:35:13;10.40;;;5.05;;
65996;SDS011;52765;52.258;21.052;2023-04-24T12:37:43;13.80;;;4.93;;
65996;SDS011;52765;52.258;21.052;2023-04-24T12:40:09;10.05;;;4.90;;
65996;SDS011;52765;52.258;21.052;2023-04-24T12:42:41;14.13;;;4.97;;
65996;SDS011;52765;52.258;21.052;2023-04-24T12:45:10;10.85;;;5.57;;
65996;SDS011;52765;52.258;21.052;2023-04-24T12:47:37;10.57;;;5.28;;
65996;SDS011;52765;52.258;21.052;2023-04-24T12:50:04;16.30;;;5.55;;
65996;SDS011;52765;52.258;21.052;2023-04-24T12:52:31;11.25;;;5.28;;
65996;SDS011;52765;52.258;21.052;2023-04-24T12:54:57;66.55;;;8.98;;
65996;SDS011;52765;52.258;21.052;2023-04-24T12:57:25;49.08;;;5.70;;
65996;SDS011;52765;52.258;21.052;2023-04-24T12:59:54;32.65;;;4.57;;
65996;SDS011;52765;52.258;21.052;2023-04-24T13:02:21;28.27;;;4.55;;
65996;SDS011;52765;52.258;21.052;2023-04-24T13:04:47;31.58;;;5.25;;
65996;SDS011;52765;52.258;21.052;2023-04-24T13:07:13;18.60;;;3.60;;
65996;SDS011;52765;52.258;21.052;2023-04-24T13:09:40;29.05;;;3.97;;
65996;SDS011;52765;52.258;21.052;2023-04-24T13:12:06;14.52;;;3.95;;
65996;SDS011;52765;52.258;21.052;2023-04-24T13:14:32;16.85;;;3.72;;
65996;SDS011;52765;52.258;21.052;2023-04-24T13:16:58;20.13;;;3.95;;
65996;SDS011;52765;52.258;21.052;2023-04-24T13:19:24;10.73;;;3.20;;
65996;SDS011;52765;52.258;21.052;2023-04-24T13:21:54;19.20;;;3.90;;
65996;SDS011;52765;52.258;21.052;2023-04-24T13:24:21;30.13;;;4.20;;
65996;SDS011;52765;52.258;21.052;2023-04-24T13:26:50;10.32;;;3.00;;
65996;SDS011;52765;52.258;21.052;2023-04-24T13:29:16;11.05;;;3.13;;
65996;SDS011;52765;52.258;21.052;2023-04-24T13:31:41;17.63;;;3.67;;
65996;SDS011;52765;52.258;21.052;2023-04-24T13:34:07;9.65;;;3.08;;
65996;SDS011;52765;52.258;21.052;2023-04-24T13:36:32;7.13;;;3.22;;
65996;SDS011;52765;52.258;21.052;2023-04-24T13:38:58;11.40;;;3.67;;
65996;SDS011;52765;52.258;21.052;2023-04-24T13:41:24;13.27;;;3.17;;
65996;SDS011;52765;52.258;21.052;2023-04-24T13:43:49;16.98;;;4.22;;
65996;SDS011;52765;52.258;21.052;2023-04-24T13:46:15;42.05;;;5.38;;
65996;SDS011;52765;52.258;21.052;2023-04-24T13:48:41;17.70;;;4.00;;
65996;SDS011;52765;52.258;21.052;2023-04-24T13:51:06;11.10;;;3.70;;
65996;SDS011;52765;52.258;21.052;2023-04-24T13:53:32;13.20;;;3.55;;
65996;SDS011;52765;52.258;21.052;2023-04-24T13:56:01;15.30;;;4.15;;
65996;SDS011;52765;52.258;21.052;2023-04-24T13:58:27;10.52;;;3.78;;
65996;SDS011;52765;52.258;21.052;2023-04-24T14:00:53;5.22;;;3.72;;
65996;SDS011;52765;52.258;21.052;2023-04-24T14:03:20;8.95;;;2.90;;
65996;SDS011;52765;52.258;21.052;2023-04-24T14:05:45;5.30;;;2.55;;
65996;SDS011;52765;52.258;21.052;2023-04-24T14:08:11;10.60;;;3.15;;
65996;SDS011;52765;52.258;21.052;2023-04-24T14:10:36;10.75;;;3.03;;
65996;SDS011;52765;52.258;21.052;2023-04-24T14:13:02;9.52;;;2.97;;
65996;SDS011;52765;52.258;21.052;2023-04-24T14:15:28;13.32;;;3.35;;
65996;SDS011;52765;52.258;21.052;2023-04-24T14:17:53;12.02;;;3.42;;
65996;SDS011;52765;52.258;21.052;2023-04-24T14:20:19;6.93;;;3.28;;
65996;SDS011;52765;52.258;21.052;2023-04-24T14:22:44;5.60;;;3.05;;
65996;SDS011;52765;52.258;21.052;2023-04-24T14:25:10;8.35;;;3.28;;
65996;SDS011;52765;52.258;21.052;2023-04-24T14:27:36;8.90;;;3.30;;
65996;SDS011;52765;52.258;21.052;2023-04-24T14:30:01;5.32;;;3.00;;
65996;SDS011;52765;52.258;21.052;2023-04-24T14:32:28;8.93;;;3.00;;
65996;SDS011;52765;52.258;21.052;2023-04-24T14:34:53;9.80;;;3.63;;
65996;SDS011;52765;52.258;21.052;2023-04-24T14:37:18;13.85;;;3.00;;
65996;SDS011;52765;52.258;21.052;2023-04-24T14:39:45;5.45;;;2.90;;